Terminal Aerodrome Forecast
Issued by NWS

Home | Current Version | Previous Version | Text Only | Print | Product List | Glossary On
Versions: 1 2 3 4 5 6 7 8 9 10 11 12 13 14 15 16 17 18 19 20 21 22 23 24 25 26 27 28 29 30 31 32 33 34 35 36 37 38 39 40 41 42 43 44 45 46
000
FTUS44 KHGX 060827 AAB
TAFCXO
TAF AMD
KCXO 060827Z 0608/0706 12008KT P6SM BKN016 OVC045
     FM061300 15012KT P6SM SCT025
     FM061900 15010G20KT P6SM VCTS SCT025 BKN040CB
     FM070200 14007KT P6SM BKN015=

USA.gov is the U.S. government's official web portal to all federal, state and local government web resources and services.